sensor_id;sensor_type;location;lat;lon;timestamp;P1;durP1;ratioP1;P2;durP2;ratioP2
11568;SDS011;5840;46.894;15.542;2023-06-14T00:00:16;5.17;;;4.77;;
11568;SDS011;5840;46.894;15.542;2023-06-14T00:02:43;4.87;;;4.50;;
11568;SDS011;5840;46.894;15.542;2023-06-14T00:05:10;4.90;;;4.40;;
11568;SDS011;5840;46.894;15.542;2023-06-14T00:07:38;4.90;;;4.50;;
11568;SDS011;5840;46.894;15.542;2023-06-14T00:10:08;5.10;;;4.70;;
11568;SDS011;5840;46.894;15.542;2023-06-14T00:12:37;4.60;;;4.20;;
11568;SDS011;5840;46.894;15.542;2023-06-14T00:15:05;4.90;;;4.50;;
11568;SDS011;5840;46.894;15.542;2023-06-14T00:17:34;5.00;;;4.63;;
11568;SDS011;5840;46.894;15.542;2023-06-14T00:20:02;4.50;;;4.20;;
11568;SDS011;5840;46.894;15.542;2023-06-14T00:22:33;4.50;;;4.10;;
11568;SDS011;5840;46.894;15.542;2023-06-14T00:25:01;4.60;;;4.30;;
11568;SDS011;5840;46.894;15.542;2023-06-14T00:27:28;5.13;;;4.70;;
11568;SDS011;5840;46.894;15.542;2023-06-14T00:29:57;5.70;;;4.67;;
11568;SDS011;5840;46.894;15.542;2023-06-14T00:32:24;6.13;;;4.80;;
11568;SDS011;5840;46.894;15.542;2023-06-14T00:34:52;5.40;;;5.00;;
11568;SDS011;5840;46.894;15.542;2023-06-14T00:37:19;4.67;;;4.37;;
11568;SDS011;5840;46.894;15.542;2023-06-14T00:39:46;5.80;;;5.33;;
11568;SDS011;5840;46.894;15.542;2023-06-14T00:42:22;5.20;;;4.80;;
11568;SDS011;5840;46.894;15.542;2023-06-14T00:44:50;5.37;;;4.97;;
11568;SDS011;5840;46.894;15.542;2023-06-14T00:47:19;6.00;;;5.07;;
11568;SDS011;5840;46.894;15.542;2023-06-14T00:49:47;5.37;;;4.90;;
11568;SDS011;5840;46.894;15.542;2023-06-14T00:52:14;5.27;;;4.87;;
11568;SDS011;5840;46.894;15.542;2023-06-14T00:54:42;5.63;;;4.97;;
11568;SDS011;5840;46.894;15.542;2023-06-14T00:57:10;5.03;;;4.63;;
11568;SDS011;5840;46.894;15.542;2023-06-14T00:59:40;4.70;;;4.30;;
11568;SDS011;5840;46.894;15.542;2023-06-14T01:02:09;5.03;;;4.63;;
11568;SDS011;5840;46.894;15.542;2023-06-14T01:04:38;5.20;;;4.80;;
11568;SDS011;5840;46.894;15.542;2023-06-14T01:07:09;4.90;;;4.20;;
11568;SDS011;5840;46.894;15.542;2023-06-14T01:09:43;5.03;;;4.67;;
11568;SDS011;5840;46.894;15.542;2023-06-14T01:12:20;5.10;;;4.70;;
11568;SDS011;5840;46.894;15.542;2023-06-14T01:14:50;5.17;;;4.77;;
11568;SDS011;5840;46.894;15.542;2023-06-14T01:17:20;5.13;;;4.73;;
11568;SDS011;5840;46.894;15.542;2023-06-14T01:19:50;5.03;;;4.67;;
11568;SDS011;5840;46.894;15.542;2023-06-14T01:22:23;5.33;;;4.93;;
11568;SDS011;5840;46.894;15.542;2023-06-14T01:24:53;5.57;;;5.17;;
11568;SDS011;5840;46.894;15.542;2023-06-14T01:27:22;5.47;;;5.00;;
11568;SDS011;5840;46.894;15.542;2023-06-14T01:29:53;5.97;;;5.57;;
11568;SDS011;5840;46.894;15.542;2023-06-14T01:32:22;5.67;;;5.27;;
11568;SDS011;5840;46.894;15.542;2023-06-14T01:34:50;6.07;;;5.57;;
11568;SDS011;5840;46.894;15.542;2023-06-14T01:37:17;5.50;;;5.10;;
11568;SDS011;5840;46.894;15.542;2023-06-14T01:39:47;5.87;;;5.40;;
11568;SDS011;5840;46.894;15.542;2023-06-14T01:42:17;5.30;;;4.80;;
11568;SDS011;5840;46.894;15.542;2023-06-14T01:44:44;5.53;;;4.97;;
11568;SDS011;5840;46.894;15.542;2023-06-14T01:47:14;5.30;;;4.90;;
11568;SDS011;5840;46.894;15.542;2023-06-14T01:49:41;5.43;;;5.03;;
11568;SDS011;5840;46.894;15.542;2023-06-14T01:52:07;5.23;;;4.80;;
11568;SDS011;5840;46.894;15.542;2023-06-14T01:54:35;6.97;;;5.40;;
11568;SDS011;5840;46.894;15.542;2023-06-14T01:57:07;6.20;;;5.60;;
11568;SDS011;5840;46.894;15.542;2023-06-14T01:59:36;5.70;;;5.23;;
11568;SDS011;5840;46.894;15.542;2023-06-14T02:02:04;6.07;;;5.37;;
11568;SDS011;5840;46.894;15.542;2023-06-14T02:04:31;5.97;;;5.57;;
11568;SDS011;5840;46.894;15.542;2023-06-14T02:06:58;6.10;;;5.60;;
11568;SDS011;5840;46.894;15.542;2023-06-14T02:09:24;6.13;;;5.53;;
11568;SDS011;5840;46.894;15.542;2023-06-14T02:11:51;5.90;;;5.40;;
11568;SDS011;5840;46.894;15.542;2023-06-14T02:14:18;6.43;;;5.23;;
11568;SDS011;5840;46.894;15.542;2023-06-14T02:16:47;6.20;;;5.77;;
11568;SDS011;5840;46.894;15.542;2023-06-14T02:19:15;5.37;;;5.07;;
11568;SDS011;5840;46.894;15.542;2023-06-14T02:21:42;5.87;;;5.40;;
11568;SDS011;5840;46.894;15.542;2023-06-14T02:24:09;6.20;;;5.60;;
11568;SDS011;5840;46.894;15.542;2023-06-14T02:26:36;6.10;;;5.60;;
11568;SDS011;5840;46.894;15.542;2023-06-14T02:29:03;6.00;;;5.40;;
11568;SDS011;5840;46.894;15.542;2023-06-14T02:31:30;5.97;;;5.57;;
11568;SDS011;5840;46.894;15.542;2023-06-14T02:33:59;5.80;;;5.40;;
11568;SDS011;5840;46.894;15.542;2023-06-14T02:36:26;6.40;;;5.87;;
11568;SDS011;5840;46.894;15.542;2023-06-14T02:38:54;5.57;;;5.07;;
11568;SDS011;5840;46.894;15.542;2023-06-14T02:41:22;6.37;;;5.97;;
11568;SDS011;5840;46.894;15.542;2023-06-14T02:43:49;6.47;;;5.93;;
11568;SDS011;5840;46.894;15.542;2023-06-14T02:46:16;6.17;;;5.63;;
11568;SDS011;5840;46.894;15.542;2023-06-14T02:48:43;7.00;;;6.30;;
11568;SDS011;5840;46.894;15.542;2023-06-14T02:51:12;5.60;;;5.20;;
11568;SDS011;5840;46.894;15.542;2023-06-14T02:53:39;6.23;;;5.63;;
11568;SDS011;5840;46.894;15.542;2023-06-14T02:56:06;5.93;;;5.53;;
11568;SDS011;5840;46.894;15.542;2023-06-14T02:58:33;6.70;;;6.13;;
11568;SDS011;5840;46.894;15.542;2023-06-14T03:01:00;6.10;;;5.60;;
11568;SDS011;5840;46.894;15.542;2023-06-14T03:03:28;6.57;;;5.97;;
11568;SDS011;5840;46.894;15.542;2023-06-14T03:05:55;6.90;;;6.30;;
11568;SDS011;5840;46.894;15.542;2023-06-14T03:08:23;7.23;;;6.63;;
11568;SDS011;5840;46.894;15.542;2023-06-14T03:10:52;6.73;;;6.20;;
11568;SDS011;5840;46.894;15.542;2023-06-14T03:13:21;6.43;;;6.03;;
11568;SDS011;5840;46.894;15.542;2023-06-14T03:15:48;6.23;;;5.73;;
11568;SDS011;5840;46.894;15.542;2023-06-14T03:18:17;6.70;;;6.20;;
11568;SDS011;5840;46.894;15.542;2023-06-14T03:20:44;6.70;;;6.10;;
11568;SDS011;5840;46.894;15.542;2023-06-14T03:23:11;6.50;;;6.00;;
11568;SDS011;5840;46.894;15.542;2023-06-14T03:25:40;6.53;;;5.97;;
11568;SDS011;5840;46.894;15.542;2023-06-14T03:28:07;5.93;;;5.43;;
11568;SDS011;5840;46.894;15.542;2023-06-14T03:30:34;6.33;;;5.83;;
11568;SDS011;5840;46.894;15.542;2023-06-14T03:33:01;7.03;;;5.87;;
11568;SDS011;5840;46.894;15.542;2023-06-14T03:35:28;6.47;;;5.87;;
11568;SDS011;5840;46.894;15.542;2023-06-14T03:37:55;6.80;;;6.30;;
11568;SDS011;5840;46.894;15.542;2023-06-14T03:40:22;6.70;;;6.10;;
11568;SDS011;5840;46.894;15.542;2023-06-14T03:42:53;6.50;;;5.93;;
11568;SDS011;5840;46.894;15.542;2023-06-14T03:45:21;6.27;;;5.83;;
11568;SDS011;5840;46.894;15.542;2023-06-14T03:47:48;6.50;;;6.00;;
11568;SDS011;5840;46.894;15.542;2023-06-14T03:50:15;6.13;;;5.57;;
11568;SDS011;5840;46.894;15.542;2023-06-14T03:52:43;5.77;;;5.37;;
11568;SDS011;5840;46.894;15.542;2023-06-14T03:55:10;6.20;;;5.80;;
11568;SDS011;5840;46.894;15.542;2023-06-14T03:57:38;6.10;;;5.70;;
11568;SDS011;5840;46.894;15.542;2023-06-14T04:00:08;6.17;;;5.60;;
11568;SDS011;5840;46.894;15.542;2023-06-14T04:02:36;7.43;;;6.73;;
11568;SDS011;5840;46.894;15.542;2023-06-14T04:05:03;6.57;;;6.10;;
11568;SDS011;5840;46.894;15.542;2023-06-14T04:07:33;6.50;;;6.00;;
11568;SDS011;5840;46.894;15.542;2023-06-14T04:10:05;6.43;;;5.93;;
11568;SDS011;5840;46.894;15.542;2023-06-14T04:12:34;6.50;;;5.87;;
11568;SDS011;5840;46.894;15.542;2023-06-14T04:15:00;6.37;;;5.97;;
11568;SDS011;5840;46.894;15.542;2023-06-14T04:17:29;6.87;;;6.37;;
11568;SDS011;5840;46.894;15.542;2023-06-14T04:19:57;7.10;;;6.50;;
11568;SDS011;5840;46.894;15.542;2023-06-14T04:22:25;6.77;;;6.17;;
11568;SDS011;5840;46.894;15.542;2023-06-14T04:24:53;5.93;;;5.53;;
11568;SDS011;5840;46.894;15.542;2023-06-14T04:27:21;6.03;;;5.63;;
11568;SDS011;5840;46.894;15.542;2023-06-14T04:29:50;6.03;;;5.60;;
11568;SDS011;5840;46.894;15.542;2023-06-14T04:32:22;6.77;;;5.67;;
11568;SDS011;5840;46.894;15.542;2023-06-14T04:34:52;6.93;;;6.33;;
11568;SDS011;5840;46.894;15.542;2023-06-14T04:37:19;6.67;;;6.17;;
11568;SDS011;5840;46.894;15.542;2023-06-14T04:39:47;7.30;;;6.70;;
11568;SDS011;5840;46.894;15.542;2023-06-14T04:42:15;6.70;;;6.20;;
11568;SDS011;5840;46.894;15.542;2023-06-14T04:44:42;7.30;;;6.70;;
11568;SDS011;5840;46.894;15.542;2023-06-14T04:47:10;7.07;;;6.57;;
11568;SDS011;5840;46.894;15.542;2023-06-14T04:49:37;6.90;;;6.40;;
11568;SDS011;5840;46.894;15.542;2023-06-14T04:52:06;6.37;;;5.87;;
11568;SDS011;5840;46.894;15.542;2023-06-14T04:54:35;6.53;;;5.93;;
11568;SDS011;5840;46.894;15.542;2023-06-14T04:57:03;6.73;;;6.20;;
11568;SDS011;5840;46.894;15.542;2023-06-14T04:59:30;6.80;;;6.30;;
11568;SDS011;5840;46.894;15.542;2023-06-14T05:01:58;7.10;;;6.60;;
11568;SDS011;5840;46.894;15.542;2023-06-14T05:04:25;8.13;;;7.53;;
11568;SDS011;5840;46.894;15.542;2023-06-14T05:06:53;7.30;;;6.70;;
11568;SDS011;5840;46.894;15.542;2023-06-14T05:09:22;7.00;;;6.50;;
11568;SDS011;5840;46.894;15.542;2023-06-14T05:11:49;7.20;;;6.70;;
11568;SDS011;5840;46.894;15.542;2023-06-14T05:14:16;7.37;;;6.73;;
11568;SDS011;5840;46.894;15.542;2023-06-14T05:16:43;7.03;;;6.53;;
11568;SDS011;5840;46.894;15.542;2023-06-14T05:19:10;6.90;;;6.30;;
11568;SDS011;5840;46.894;15.542;2023-06-14T05:21:37;7.40;;;6.80;;
11568;SDS011;5840;46.894;15.542;2023-06-14T05:24:04;7.13;;;6.53;;
11568;SDS011;5840;46.894;15.542;2023-06-14T05:26:33;7.70;;;7.13;;
11568;SDS011;5840;46.894;15.542;2023-06-14T05:29:00;7.93;;;7.33;;
11568;SDS011;5840;46.894;15.542;2023-06-14T05:31:27;7.33;;;6.83;;
11568;SDS011;5840;46.894;15.542;2023-06-14T05:33:55;7.93;;;7.33;;
11568;SDS011;5840;46.894;15.542;2023-06-14T05:36:22;7.77;;;7.17;;
11568;SDS011;5840;46.894;15.542;2023-06-14T05:38:49;7.53;;;6.90;;
11568;SDS011;5840;46.894;15.542;2023-06-14T05:41:22;8.30;;;7.50;;
11568;SDS011;5840;46.894;15.542;2023-06-14T05:43:51;8.27;;;7.57;;
11568;SDS011;5840;46.894;15.542;2023-06-14T05:46:18;8.30;;;7.50;;
11568;SDS011;5840;46.894;15.542;2023-06-14T05:48:47;7.70;;;7.10;;
11568;SDS011;5840;46.894;15.542;2023-06-14T05:51:14;7.80;;;7.23;;
11568;SDS011;5840;46.894;15.542;2023-06-14T05:53:43;8.73;;;7.97;;
11568;SDS011;5840;46.894;15.542;2023-06-14T05:56:10;7.97;;;7.27;;
11568;SDS011;5840;46.894;15.542;2023-06-14T05:58:37;8.47;;;7.77;;
11568;SDS011;5840;46.894;15.542;2023-06-14T06:01:06;7.90;;;7.30;;
11568;SDS011;5840;46.894;15.542;2023-06-14T06:03:33;8.67;;;7.97;;
11568;SDS011;5840;46.894;15.542;2023-06-14T06:06:00;8.57;;;7.57;;
11568;SDS011;5840;46.894;15.542;2023-06-14T06:08:28;8.00;;;7.40;;
11568;SDS011;5840;46.894;15.542;2023-06-14T06:10:55;8.27;;;7.57;;
11568;SDS011;5840;46.894;15.542;2023-06-14T06:13:22;7.37;;;6.77;;
11568;SDS011;5840;46.894;15.542;2023-06-14T06:15:49;8.53;;;7.93;;
11568;SDS011;5840;46.894;15.542;2023-06-14T06:18:17;8.20;;;7.60;;
11568;SDS011;5840;46.894;15.542;2023-06-14T06:20:44;10.00;;;8.73;;
11568;SDS011;5840;46.894;15.542;2023-06-14T06:23:12;8.53;;;7.83;;
11568;SDS011;5840;46.894;15.542;2023-06-14T06:25:39;8.30;;;7.70;;
11568;SDS011;5840;46.894;15.542;2023-06-14T06:28:06;9.13;;;7.33;;
11568;SDS011;5840;46.894;15.542;2023-06-14T06:30:33;7.33;;;6.83;;
11568;SDS011;5840;46.894;15.542;2023-06-14T06:33:01;8.70;;;8.00;;
11568;SDS011;5840;46.894;15.542;2023-06-14T06:35:30;7.90;;;7.20;;
11568;SDS011;5840;46.894;15.542;2023-06-14T06:37:58;8.63;;;7.83;;
11568;SDS011;5840;46.894;15.542;2023-06-14T06:40:25;8.57;;;7.60;;
11568;SDS011;5840;46.894;15.542;2023-06-14T06:42:52;8.00;;;7.20;;
11568;SDS011;5840;46.894;15.542;2023-06-14T06:45:19;7.73;;;7.23;;
11568;SDS011;5840;46.894;15.542;2023-06-14T06:47:48;7.10;;;6.60;;
11568;SDS011;5840;46.894;15.542;2023-06-14T06:50:15;7.70;;;7.00;;
11568;SDS011;5840;46.894;15.542;2023-06-14T06:52:43;7.17;;;6.67;;
11568;SDS011;5840;46.894;15.542;2023-06-14T06:55:11;6.70;;;6.07;;
11568;SDS011;5840;46.894;15.542;2023-06-14T06:57:38;6.10;;;5.60;;
11568;SDS011;5840;46.894;15.542;2023-06-14T07:00:05;5.63;;;5.23;;
11568;SDS011;5840;46.894;15.542;2023-06-14T07:02:34;6.10;;;5.70;;
11568;SDS011;5840;46.894;15.542;2023-06-14T07:05:01;5.67;;;5.27;;
11568;SDS011;5840;46.894;15.542;2023-06-14T07:07:29;5.30;;;4.90;;
11568;SDS011;5840;46.894;15.542;2023-06-14T07:09:57;5.40;;;5.00;;
11568;SDS011;5840;46.894;15.542;2023-06-14T07:12:25;5.10;;;4.70;;
11568;SDS011;5840;46.894;15.542;2023-06-14T07:14:52;5.43;;;4.93;;
11568;SDS011;5840;46.894;15.542;2023-06-14T07:17:19;5.07;;;4.77;;
11568;SDS011;5840;46.894;15.542;2023-06-14T07:19:46;5.23;;;4.87;;
11568;SDS011;5840;46.894;15.542;2023-06-14T07:22:13;7.67;;;7.07;;
11568;SDS011;5840;46.894;15.542;2023-06-14T07:24:39;6.10;;;5.60;;
11568;SDS011;5840;46.894;15.542;2023-06-14T07:27:08;6.10;;;5.57;;
11568;SDS011;5840;46.894;15.542;2023-06-14T07:29:36;5.93;;;5.40;;
11568;SDS011;5840;46.894;15.542;2023-06-14T07:32:03;6.00;;;5.50;;
11568;SDS011;5840;46.894;15.542;2023-06-14T07:34:31;6.33;;;5.73;;
11568;SDS011;5840;46.894;15.542;2023-06-14T07:36:58;6.47;;;5.87;;
11568;SDS011;5840;46.894;15.542;2023-06-14T07:39:25;6.47;;;5.97;;
11568;SDS011;5840;46.894;15.542;2023-06-14T07:41:52;5.83;;;5.30;;
11568;SDS011;5840;46.894;15.542;2023-06-14T07:44:20;6.83;;;6.23;;
11568;SDS011;5840;46.894;15.542;2023-06-14T07:46:47;6.43;;;5.93;;
11568;SDS011;5840;46.894;15.542;2023-06-14T07:49:15;6.30;;;5.70;;
11568;SDS011;5840;46.894;15.542;2023-06-14T07:51:42;6.87;;;6.30;;
11568;SDS011;5840;46.894;15.542;2023-06-14T07:54:11;6.70;;;6.20;;
11568;SDS011;5840;46.894;15.542;2023-06-14T07:56:39;6.70;;;6.10;;
11568;SDS011;5840;46.894;15.542;2023-06-14T07:59:06;8.20;;;6.73;;
11568;SDS011;5840;46.894;15.542;2023-06-14T08:01:34;6.70;;;6.20;;
11568;SDS011;5840;46.894;15.542;2023-06-14T08:04:01;6.57;;;5.97;;
11568;SDS011;5840;46.894;15.542;2023-06-14T08:06:28;6.97;;;6.37;;
11568;SDS011;5840;46.894;15.542;2023-06-14T08:08:55;6.50;;;6.00;;
11568;SDS011;5840;46.894;15.542;2023-06-14T08:11:22;6.73;;;6.13;;
11568;SDS011;5840;46.894;15.542;2023-06-14T08:13:50;6.77;;;6.27;;
11568;SDS011;5840;46.894;15.542;2023-06-14T08:16:16;5.80;;;5.20;;
11568;SDS011;5840;46.894;15.542;2023-06-14T08:18:45;7.33;;;6.20;;
11568;SDS011;5840;46.894;15.542;2023-06-14T08:21:12;6.27;;;5.77;;
11568;SDS011;5840;46.894;15.542;2023-06-14T08:23:39;6.20;;;5.73;;
11568;SDS011;5840;46.894;15.542;2023-06-14T08:26:08;6.67;;;6.07;;
11568;SDS011;5840;46.894;15.542;2023-06-14T08:28:35;6.93;;;6.27;;
11568;SDS011;5840;46.894;15.542;2023-06-14T08:31:02;6.30;;;5.80;;
11568;SDS011;5840;46.894;15.542;2023-06-14T08:33:29;6.07;;;5.60;;
11568;SDS011;5840;46.894;15.542;2023-06-14T08:35:59;6.40;;;5.90;;
11568;SDS011;5840;46.894;15.542;2023-06-14T08:38:26;6.70;;;6.20;;
11568;SDS011;5840;46.894;15.542;2023-06-14T08:40:53;6.77;;;6.27;;
11568;SDS011;5840;46.894;15.542;2023-06-14T08:43:24;6.97;;;6.40;;
11568;SDS011;5840;46.894;15.542;2023-06-14T08:45:52;7.53;;;6.87;;
11568;SDS011;5840;46.894;15.542;2023-06-14T08:48:24;6.80;;;6.10;;
11568;SDS011;5840;46.894;15.542;2023-06-14T08:50:53;7.60;;;6.97;;
11568;SDS011;5840;46.894;15.542;2023-06-14T08:53:28;6.77;;;6.27;;
11568;SDS011;5840;46.894;15.542;2023-06-14T08:55:56;6.80;;;6.30;;
11568;SDS011;5840;46.894;15.542;2023-06-14T08:58:26;7.20;;;6.60;;
11568;SDS011;5840;46.894;15.542;2023-06-14T09:00:55;7.97;;;7.17;;
11568;SDS011;5840;46.894;15.542;2023-06-14T09:03:22;7.43;;;6.80;;
11568;SDS011;5840;46.894;15.542;2023-06-14T09:05:55;7.00;;;6.50;;
11568;SDS011;5840;46.894;15.542;2023-06-14T09:08:24;7.40;;;6.80;;
11568;SDS011;5840;46.894;15.542;2023-06-14T09:10:52;7.53;;;6.93;;
11568;SDS011;5840;46.894;15.542;2023-06-14T09:13:20;6.90;;;6.33;;
11568;SDS011;5840;46.894;15.542;2023-06-14T09:15:47;6.30;;;5.80;;
11568;SDS011;5840;46.894;15.542;2023-06-14T09:18:13;6.03;;;5.60;;
11568;SDS011;5840;46.894;15.542;2023-06-14T09:20:40;6.60;;;6.10;;
11568;SDS011;5840;46.894;15.542;2023-06-14T09:23:07;6.20;;;5.70;;
11568;SDS011;5840;46.894;15.542;2023-06-14T09:25:41;6.60;;;6.10;;
11568;SDS011;5840;46.894;15.542;2023-06-14T09:28:11;6.70;;;6.10;;
11568;SDS011;5840;46.894;15.542;2023-06-14T09:30:38;5.90;;;5.50;;
11568;SDS011;5840;46.894;15.542;2023-06-14T09:33:05;6.20;;;5.80;;
11568;SDS011;5840;46.894;15.542;2023-06-14T09:35:32;6.13;;;5.63;;
11568;SDS011;5840;46.894;15.542;2023-06-14T09:37:59;7.50;;;6.80;;
11568;SDS011;5840;46.894;15.542;2023-06-14T09:40:26;7.40;;;6.80;;
11568;SDS011;5840;46.894;15.542;2023-06-14T09:42:53;8.13;;;7.37;;
11568;SDS011;5840;46.894;15.542;2023-06-14T09:45:24;8.27;;;7.57;;
11568;SDS011;5840;46.894;15.542;2023-06-14T09:47:54;8.63;;;7.93;;
11568;SDS011;5840;46.894;15.542;2023-06-14T09:50:22;7.57;;;6.90;;
11568;SDS011;5840;46.894;15.542;2023-06-14T09:52:49;8.13;;;7.50;;
11568;SDS011;5840;46.894;15.542;2023-06-14T09:55:24;8.27;;;7.67;;
11568;SDS011;5840;46.894;15.542;2023-06-14T09:57:52;7.87;;;7.27;;
11568;SDS011;5840;46.894;15.542;2023-06-14T10:00:21;8.17;;;7.43;;
11568;SDS011;5840;46.894;15.542;2023-06-14T10:02:53;6.77;;;6.27;;
11568;SDS011;5840;46.894;15.542;2023-06-14T10:05:25;6.83;;;6.23;;
11568;SDS011;5840;46.894;15.542;2023-06-14T10:07:55;6.77;;;6.20;;
11568;SDS011;5840;46.894;15.542;2023-06-14T10:10:26;6.20;;;5.60;;
11568;SDS011;5840;46.894;15.542;2023-06-14T10:12:53;6.03;;;5.63;;
11568;SDS011;5840;46.894;15.542;2023-06-14T10:15:25;5.93;;;5.50;;
11568;SDS011;5840;46.894;15.542;2023-06-14T10:17:59;5.87;;;5.43;;
11568;SDS011;5840;46.894;15.542;2023-06-14T10:20:35;6.13;;;5.63;;
11568;SDS011;5840;46.894;15.542;2023-06-14T10:23:10;7.07;;;6.47;;
11568;SDS011;5840;46.894;15.542;2023-06-14T10:25:49;6.77;;;6.23;;
11568;SDS011;5840;46.894;15.542;2023-06-14T10:28:17;6.00;;;5.57;;
11568;SDS011;5840;46.894;15.542;2023-06-14T10:31:04;6.30;;;5.90;;
11568;SDS011;5840;46.894;15.542;2023-06-14T10:33:32;5.70;;;5.30;;
11568;SDS011;5840;46.894;15.542;2023-06-14T10:36:06;5.83;;;5.33;;
11568;SDS011;5840;46.894;15.542;2023-06-14T10:38:35;6.67;;;6.20;;
11568;SDS011;5840;46.894;15.542;2023-06-14T10:41:03;5.90;;;5.50;;
11568;SDS011;5840;46.894;15.542;2023-06-14T10:43:31;6.60;;;6.00;;
11568;SDS011;5840;46.894;15.542;2023-06-14T10:46:13;6.53;;;6.00;;
11568;SDS011;5840;46.894;15.542;2023-06-14T10:48:42;6.13;;;5.63;;
11568;SDS011;5840;46.894;15.542;2023-06-14T10:51:16;6.30;;;5.80;;
11568;SDS011;5840;46.894;15.542;2023-06-14T10:53:47;5.63;;;5.17;;
11568;SDS011;5840;46.894;15.542;2023-06-14T10:56:26;5.97;;;5.57;;
11568;SDS011;5840;46.894;15.542;2023-06-14T10:58:54;5.60;;;5.17;;
11568;SDS011;5840;46.894;15.542;2023-06-14T11:01:28;6.27;;;5.67;;
11568;SDS011;5840;46.894;15.542;2023-06-14T11:04:09;5.60;;;5.10;;
11568;SDS011;5840;46.894;15.542;2023-06-14T11:06:44;6.20;;;5.70;;
11568;SDS011;5840;46.894;15.542;2023-06-14T11:12:10;7.57;;;5.53;;
11568;SDS011;5840;46.894;15.542;2023-06-14T11:14:38;5.40;;;4.90;;
11568;SDS011;5840;46.894;15.542;2023-06-14T11:17:06;5.97;;;5.57;;
11568;SDS011;5840;46.894;15.542;2023-06-14T11:19:33;5.57;;;5.07;;
11568;SDS011;5840;46.894;15.542;2023-06-14T11:22:01;5.33;;;4.90;;
11568;SDS011;5840;46.894;15.542;2023-06-14T11:24:28;5.60;;;5.20;;
11568;SDS011;5840;46.894;15.542;2023-06-14T11:26:55;6.17;;;5.67;;
11568;SDS011;5840;46.894;15.542;2023-06-14T11:29:22;5.47;;;5.07;;
11568;SDS011;5840;46.894;15.542;2023-06-14T11:31:50;5.03;;;4.63;;
11568;SDS011;5840;46.894;15.542;2023-06-14T11:34:18;5.23;;;4.83;;
11568;SDS011;5840;46.894;15.542;2023-06-14T11:36:45;5.10;;;4.70;;
11568;SDS011;5840;46.894;15.542;2023-06-14T11:39:13;5.33;;;4.93;;
11568;SDS011;5840;46.894;15.542;2023-06-14T11:41:40;5.77;;;5.27;;
11568;SDS011;5840;46.894;15.542;2023-06-14T11:44:08;5.17;;;4.77;;
11568;SDS011;5840;46.894;15.542;2023-06-14T11:46:36;5.67;;;5.00;;
11568;SDS011;5840;46.894;15.542;2023-06-14T11:49:04;5.33;;;4.83;;
11568;SDS011;5840;46.894;15.542;2023-06-14T11:51:33;5.23;;;4.87;;
11568;SDS011;5840;46.894;15.542;2023-06-14T11:54:00;5.50;;;5.10;;
11568;SDS011;5840;46.894;15.542;2023-06-14T11:56:28;5.87;;;5.37;;
11568;SDS011;5840;46.894;15.542;2023-06-14T11:58:56;5.43;;;4.93;;
11568;SDS011;5840;46.894;15.542;2023-06-14T12:01:24;5.40;;;5.00;;
11568;SDS011;5840;46.894;15.542;2023-06-14T12:03:52;5.20;;;4.80;;
11568;SDS011;5840;46.894;15.542;2023-06-14T12:06:25;5.50;;;5.10;;
11568;SDS011;5840;46.894;15.542;2023-06-14T12:08:56;5.30;;;4.83;;
11568;SDS011;5840;46.894;15.542;2023-06-14T12:11:23;5.33;;;4.83;;
11568;SDS011;5840;46.894;15.542;2023-06-14T12:13:54;5.27;;;4.77;;
11568;SDS011;5840;46.894;15.542;2023-06-14T12:16:29;4.50;;;4.20;;
11568;SDS011;5840;46.894;15.542;2023-06-14T12:18:56;5.00;;;4.60;;
11568;SDS011;5840;46.894;15.542;2023-06-14T12:21:27;4.97;;;4.57;;
11568;SDS011;5840;46.894;15.542;2023-06-14T12:23:54;4.97;;;4.57;;
11568;SDS011;5840;46.894;15.542;2023-06-14T12:26:22;5.03;;;4.63;;
11568;SDS011;5840;46.894;15.542;2023-06-14T12:28:52;5.03;;;4.63;;
11568;SDS011;5840;46.894;15.542;2023-06-14T12:31:20;5.13;;;4.73;;
11568;SDS011;5840;46.894;15.542;2023-06-14T12:33:47;4.33;;;4.03;;
11568;SDS011;5840;46.894;15.542;2023-06-14T12:36:15;4.60;;;4.20;;
11568;SDS011;5840;46.894;15.542;2023-06-14T12:38:42;4.77;;;4.47;;
11568;SDS011;5840;46.894;15.542;2023-06-14T12:41:10;5.33;;;4.97;;
11568;SDS011;5840;46.894;15.542;2023-06-14T12:43:41;4.70;;;4.40;;
11568;SDS011;5840;46.894;15.542;2023-06-14T12:46:08;4.80;;;4.50;;
11568;SDS011;5840;46.894;15.542;2023-06-14T12:48:35;4.90;;;4.30;;
11568;SDS011;5840;46.894;15.542;2023-06-14T12:51:02;4.77;;;4.37;;
11568;SDS011;5840;46.894;15.542;2023-06-14T12:53:28;5.43;;;5.03;;
11568;SDS011;5840;46.894;15.542;2023-06-14T12:55:55;5.00;;;4.60;;
11568;SDS011;5840;46.894;15.542;2023-06-14T12:58:22;5.33;;;4.50;;
11568;SDS011;5840;46.894;15.542;2023-06-14T13:00:51;4.83;;;4.43;;
11568;SDS011;5840;46.894;15.542;2023-06-14T13:03:18;4.97;;;4.60;;
11568;SDS011;5840;46.894;15.542;2023-06-14T13:05:45;4.73;;;4.43;;
11568;SDS011;5840;46.894;15.542;2023-06-14T13:08:12;4.60;;;4.20;;
11568;SDS011;5840;46.894;15.542;2023-06-14T13:10:39;4.40;;;4.10;;
11568;SDS011;5840;46.894;15.542;2023-06-14T13:13:06;4.97;;;4.57;;
11568;SDS011;5840;46.894;15.542;2023-06-14T13:15:33;4.80;;;4.40;;
11568;SDS011;5840;46.894;15.542;2023-06-14T13:18:01;5.33;;;4.70;;
11568;SDS011;5840;46.894;15.542;2023-06-14T13:20:28;4.67;;;4.27;;
11568;SDS011;5840;46.894;15.542;2023-06-14T13:22:55;4.70;;;4.30;;
11568;SDS011;5840;46.894;15.542;2023-06-14T13:25:22;4.50;;;4.20;;
11568;SDS011;5840;46.894;15.542;2023-06-14T13:27:49;4.77;;;4.40;;
11568;SDS011;5840;46.894;15.542;2023-06-14T13:30:16;5.13;;;4.63;;
11568;SDS011;5840;46.894;15.542;2023-06-14T13:32:43;4.93;;;4.53;;
11568;SDS011;5840;46.894;15.542;2023-06-14T13:35:11;4.80;;;4.40;;
11568;SDS011;5840;46.894;15.542;2023-06-14T13:37:38;4.60;;;4.30;;
11568;SDS011;5840;46.894;15.542;2023-06-14T13:40:06;5.17;;;4.77;;
11568;SDS011;5840;46.894;15.542;2023-06-14T13:42:33;4.80;;;4.37;;
11568;SDS011;5840;46.894;15.542;2023-06-14T13:45:01;4.80;;;4.40;;
11568;SDS011;5840;46.894;15.542;2023-06-14T13:47:28;4.87;;;4.47;;
11568;SDS011;5840;46.894;15.542;2023-06-14T13:49:55;4.67;;;4.27;;
11568;SDS011;5840;46.894;15.542;2023-06-14T13:52:23;4.97;;;4.67;;
11568;SDS011;5840;46.894;15.542;2023-06-14T13:54:50;4.60;;;4.20;;
11568;SDS011;5840;46.894;15.542;2023-06-14T13:57:17;4.83;;;4.43;;
11568;SDS011;5840;46.894;15.542;2023-06-14T13:59:44;4.80;;;4.50;;
11568;SDS011;5840;46.894;15.542;2023-06-14T14:02:11;4.57;;;4.17;;
11568;SDS011;5840;46.894;15.542;2023-06-14T14:04:39;4.67;;;4.37;;
11568;SDS011;5840;46.894;15.542;2023-06-14T14:07:07;5.13;;;4.73;;
11568;SDS011;5840;46.894;15.542;2023-06-14T14:09:35;4.73;;;4.33;;
11568;SDS011;5840;46.894;15.542;2023-06-14T14:12:02;5.03;;;4.63;;
11568;SDS011;5840;46.894;15.542;2023-06-14T14:14:30;4.77;;;4.37;;
11568;SDS011;5840;46.894;15.542;2023-06-14T14:16:58;4.70;;;4.30;;
11568;SDS011;5840;46.894;15.542;2023-06-14T14:19:25;4.73;;;4.33;;
11568;SDS011;5840;46.894;15.542;2023-06-14T14:21:52;5.17;;;4.73;;
11568;SDS011;5840;46.894;15.542;2023-06-14T14:24:19;4.57;;;4.20;;
11568;SDS011;5840;46.894;15.542;2023-06-14T14:26:48;5.13;;;4.70;;
11568;SDS011;5840;46.894;15.542;2023-06-14T14:29:18;4.87;;;4.57;;
11568;SDS011;5840;46.894;15.542;2023-06-14T14:31:45;4.83;;;4.53;;
11568;SDS011;5840;46.894;15.542;2023-06-14T14:34:12;4.80;;;4.50;;
11568;SDS011;5840;46.894;15.542;2023-06-14T14:36:39;4.43;;;4.13;;
11568;SDS011;5840;46.894;15.542;2023-06-14T14:39:07;4.30;;;4.00;;
11568;SDS011;5840;46.894;15.542;2023-06-14T14:41:34;5.37;;;4.60;;
11568;SDS011;5840;46.894;15.542;2023-06-14T14:44:04;4.93;;;4.53;;
11568;SDS011;5840;46.894;15.542;2023-06-14T14:46:31;5.73;;;4.87;;
11568;SDS011;5840;46.894;15.542;2023-06-14T14:48:58;5.17;;;4.70;;
11568;SDS011;5840;46.894;15.542;2023-06-14T14:51:26;5.07;;;4.67;;
11568;SDS011;5840;46.894;15.542;2023-06-14T14:53:53;5.00;;;4.60;;
11568;SDS011;5840;46.894;15.542;2023-06-14T14:56:22;4.90;;;4.43;;